Startpagina
METAR-TAF:

METAR-TAF

Vliegvelden :

Shell, Ecuador

breedte: 01-30-19S, lengte: 078-03-46W, hoogte: 1056 m

Actueel weer

Dit bericht is 1 uur en het 2 minuten geleden gemaakt, om 13:00 UTC
Wind 4 kt uit het noordnoordwesten
Temperatuur 20°C
Vochtigheid 88%
Druk 1018 hPa
Zicht 10 km of meer
Gebroken wolken op 3000 ft
Geheel bewolkt op 10000 ft

METAR: SESM 191300Z 33004KT 9999 BKN030 OVC100 20/18 Q1018 RMK A3007

Tijdstip: 09:02 (14:02 UTC)


TAF: ontbreekt

Waarnemingen en weersverwachtingen van meer dan 4000 vliegvelden (METAR en TAF).

De beschikbare stations zijn de gele en rode punten op de kaart.

Ga met uw muis naar het station om de naam te zien.

Klik dan om waarnemingen en weersverwachtingen te zien.

kaart wijzigen: klik op de groene knoppen met een zwart kruis om in te zoomen, op de groene knop met een streepje om uit te zoomen of op de groene pijlen voor aangrenzende kaarten.


METAR-TAF: